• Join FlightAware (Why Join?)
  • Login
  • US Flag 
09:08AM EST


 

Airport Tracker/Info


-or-


 

Live Flight TrackerFlight Track Log ✈ DAL981 ✈ 04-May-2013 ✈ KMSN - KMSP

Flight Track Log - Related Links

Times and Time Zones

All times are in EDT time to prevent confusion due to time zone crossing. See the DAL981 flight status page for this flight to view local times or setup timezone preferences in your user account.

Time Position Orientation Groundspeed Altitude Reporting Facility
EDT Latitude Longitude Course Direction KTS MPH feet Rate Location/Type
08:35AM 43.1847 -89.3844 288° West 241 277 2,900  Level Minneapolis Center
08:36AM 43.1978 -89.4825 280° West 260 299 6,000 3,120 Climbing Minneapolis Center
08:37AM 43.2298 -89.8288 283° West  Level FlightAware Approximate
08:37AM 43.2181 -89.6139 282° West 294 338 9,800  Level Chicago Center
08:38AM 43.2663 -89.9928 288° West  Level FlightAware Approximate
08:38AM 43.2350 -89.7400 280° West 330 380 11,600  Level Chicago Center
08:39AM 43.2938 -90.1585 289° West  Level FlightAware Approximate
08:39AM 43.2578 -89.8906 282° West 395 455 13,600  Level Chicago Center
08:40AM 43.3289 -90.3226 288° West  Level FlightAware Approximate
08:40AM 43.2819 -90.0483 282° West 418 481 16,000  Level Chicago Center
08:41AM 43.3083 -90.2117 283° West 432 497 18,700 2,220 Climbing Chicago Center
08:42AM 43.3433 -90.3719 287° West 435 501 20,600 1,560 Climbing Chicago Center
08:43AM 43.3775 -90.5367 286° West 450 518 22,000 720 Climbing Chicago Center
08:44AM 43.4061 -90.6692 287° West 452 520 22,000  Level Minneapolis Center
08:45AM 43.4469 -90.8683 286° West 457 526 22,000  Level Minneapolis Center
08:46AM 43.4803 -91.0344 286° West 456 525 22,000  Level Minneapolis Center
08:47AM 43.5139 -91.1964 286° West 450 518 22,000  Level Minneapolis Center
08:48AM 43.5458 -91.3589 285° West 447 514 22,000  Level Minneapolis Center
08:49AM 43.5772 -91.5194 285° West 442 509 22,000  Level Minneapolis Center
08:50AM 43.6086 -91.6817 285° West 441 507 22,000  Level Minneapolis Center
08:51AM 43.6400 -91.8453 285° West 445 512 22,000  Level Minneapolis Center
08:52AM 43.6792 -91.9667 294° West 436 502 22,000  Level Minneapolis Center
08:53AM 43.7683 -92.1664 302° West 440 506 22,000  Level Minneapolis Center
08:54AM 43.8317 -92.3094 302° West 436 502 22,000 -540 Level Minneapolis Center
08:55AM 43.8950 -92.4500 302° West 432 497 21,000 -1,740 Descending Minneapolis Center
08:56AM 43.9553 -92.5894 301° West 426 490 18,500 -2,460 Descending Minneapolis Center
08:57AM 44.0158 -92.7253 302° West 417 480 16,000 -2,520 Descending Minneapolis Center
08:58AM 44.0722 -92.8553 301° West 398 458 13,400 -2,640 Descending Minneapolis Center
08:59AM 44.1281 -92.9822 302° West 387 445 10,600 -1,740 Descending Minneapolis Center
09:00AM 44.1833 -93.1086 301° West 381 438 9,900 -300 Descending Minneapolis Center
09:01AM 44.2522 -93.2150 312° West 387 445 10,000  Climbing Minneapolis Center
09:02AM 44.3500 -93.2094 North 349 402 10,000 -840 Level Minneapolis Center
09:03AM 44.4517 -93.1997 North 306 352 8,300 -1,500 Descending Minneapolis Center
09:04AM 44.5264 -93.1631 19° North 290 334 7,000 -660 Descending Minneapolis Center
09:05AM 44.5922 -93.1000 34° Northeast 289 333 7,000 -180 Level Minneapolis Center
09:06AM 44.6542 -93.0444 33° Northeast 264 304 6,700 -960 Descending Minneapolis Center
09:07AM 44.7075 -92.9917 35° Northeast 240 276 5,100 -1,380 Descending Minneapolis Center
09:09AM 44.7650 -92.9650 18° North 229 264 4,000 -1,140 Descending Minneapolis Center